createdAt,value
2019-05-22T00:01:13.941Z,23.94
2019-05-22T00:03:47.369Z,23.39
2019-05-22T00:06:17.369Z,22.80
2019-05-22T00:08:47.683Z,23.54
2019-05-22T00:11:17.335Z,23.35
2019-05-22T00:13:47.848Z,24.28
2019-05-22T00:16:18.492Z,23.92
2019-05-22T00:18:47.454Z,23.22
2019-05-22T00:21:16.712Z,23.22
2019-05-22T00:23:46.777Z,23.17
2019-05-22T00:26:15.411Z,23.58
2019-05-22T00:28:44.379Z,23.35
2019-05-22T00:31:14.342Z,23.79
2019-05-22T00:33:44.193Z,23.58
2019-05-22T00:36:13.424Z,23.68
2019-05-22T00:38:42.338Z,23.07
2019-05-22T00:41:13.271Z,23.22
2019-05-22T00:43:44.604Z,23.17
2019-05-22T00:46:20.567Z,23.31
2019-05-22T00:48:49.589Z,24.02
2019-05-22T00:51:22.522Z,23.76
2019-05-22T00:54:09.383Z,23.28
2019-05-22T00:56:57.311Z,23.73
2019-05-22T00:59:31.535Z,22.75
2019-05-22T01:02:04.058Z,23.63
2019-05-22T01:04:35.148Z,22.12
2019-05-22T01:07:07.574Z,23.15
2019-05-22T01:09:43.489Z,23.11
2019-05-22T01:12:18.828Z,24.15
2019-05-22T01:14:48.884Z,23.92
2019-05-22T01:17:19.411Z,24.11
2019-05-22T01:19:49.051Z,24.61
2019-05-22T01:22:17.828Z,23.64
2019-05-22T01:24:48.297Z,24.17
2019-05-22T01:27:18.276Z,24.12
2019-05-22T01:29:48.095Z,23.15
2019-05-22T01:32:20.733Z,23.83
2019-05-22T01:34:50.448Z,23.72
2019-05-22T01:37:20.131Z,23.29
2019-05-22T01:39:56.133Z,23.80
2019-05-22T01:42:29.329Z,24.08
2019-05-22T01:45:05.807Z,24.15
2019-05-22T01:47:42.698Z,23.55
2019-05-22T01:50:16.041Z,24.33
2019-05-22T01:52:46.293Z,23.75
2019-05-22T01:55:15.256Z,23.73
2019-05-22T01:57:44.240Z,23.72
2019-05-22T02:00:13.375Z,23.61
2019-05-22T02:02:42.867Z,23.84
2019-05-22T02:05:12.102Z,24.38
2019-05-22T02:07:42.092Z,23.55
2019-05-22T02:10:14.732Z,23.55
2019-05-22T02:12:52.215Z,23.38
2019-05-22T02:15:21.347Z,23.58
2019-05-22T02:17:50.397Z,23.33
2019-05-22T02:20:19.951Z,23.18
2019-05-22T02:22:49.955Z,23.17
2019-05-22T02:25:19.077Z,23.81
2019-05-22T02:27:48.115Z,23.11
2019-05-22T02:30:18.971Z,23.38
2019-05-22T02:32:48.604Z,23.03
2019-05-22T02:35:16.998Z,22.82
2019-05-22T02:37:45.737Z,23.61
2019-05-22T02:40:23.775Z,23.89
2019-05-22T02:42:53.472Z,22.91
2019-05-22T02:45:22.526Z,23.92
2019-05-22T02:47:50.890Z,22.79
2019-05-22T02:50:19.916Z,22.66
2019-05-22T02:52:49.480Z,23.54
2019-05-22T02:55:17.936Z,23.08
2019-05-22T02:57:46.839Z,22.53
2019-05-22T03:00:16.479Z,23.38
2019-05-22T03:02:51.278Z,22.71
2019-05-22T03:05:20.907Z,23.00
2019-05-22T03:07:49.227Z,23.02
2019-05-22T03:10:19.559Z,23.48
2019-05-22T03:12:49.988Z,23.80
2019-05-22T03:15:22.469Z,22.54
2019-05-22T03:17:55.809Z,22.86
2019-05-22T03:20:24.598Z,23.74
2019-05-22T03:23:09.762Z,22.60
2019-05-22T03:25:38.467Z,22.84
2019-05-22T03:28:08.334Z,23.69
2019-05-22T03:30:39.455Z,23.04
2019-05-22T03:33:09.551Z,23.35
2019-05-22T03:35:47.491Z,22.98
2019-05-22T03:38:19.209Z,22.96
2019-05-22T03:40:50.893Z,22.97
2019-05-22T03:43:22.459Z,23.71
2019-05-22T03:45:51.016Z,23.68
2019-05-22T03:48:21.433Z,22.94
2019-05-22T03:50:49.907Z,22.84
2019-05-22T03:53:19.114Z,22.79
2019-05-22T03:55:49.931Z,22.49
2019-05-22T03:58:18.948Z,22.76
2019-05-22T04:00:49.821Z,22.43
2019-05-22T04:03:18.111Z,22.81
2019-05-22T04:05:47.588Z,23.08
2019-05-22T04:08:18.638Z,23.73
2019-05-22T04:11:00.027Z,23.81
2019-05-22T04:13:28.966Z,23.25
2019-05-22T04:15:57.586Z,24.03
2019-05-22T04:18:26.985Z,22.77
2019-05-22T04:20:56.823Z,23.26
2019-05-22T04:23:25.379Z,23.26
2019-05-22T04:25:55.454Z,23.18
2019-05-22T04:28:23.870Z,22.66
2019-05-22T04:30:52.876Z,22.79
2019-05-22T04:33:21.640Z,23.29
2019-05-22T04:35:50.202Z,22.55
2019-05-22T04:38:18.681Z,23.42
2019-05-22T04:40:48.921Z,23.52
2019-05-22T04:43:20.426Z,23.66
2019-05-22T04:45:50.253Z,23.72
2019-05-22T04:48:19.811Z,23.13
2019-05-22T04:50:50.046Z,23.03
2019-05-22T04:53:18.796Z,23.93
2019-05-22T04:55:47.893Z,23.12
2019-05-22T04:58:17.930Z,23.63
2019-05-22T05:00:46.398Z,22.98
2019-05-22T05:03:16.650Z,22.62
2019-05-22T05:05:54.143Z,23.40
2019-05-22T05:08:24.108Z,22.74
2019-05-22T05:10:56.171Z,23.10
2019-05-22T05:13:24.957Z,23.67
2019-05-22T05:15:53.260Z,23.00
2019-05-22T05:18:21.997Z,23.74
2019-05-22T05:20:50.354Z,22.71
2019-05-22T05:23:19.348Z,23.43
2019-05-22T05:25:47.732Z,23.10
2019-05-22T05:28:16.513Z,23.39
2019-05-22T05:30:44.896Z,22.64
2019-05-22T05:33:13.282Z,23.00
2019-05-22T05:35:42.330Z,22.70
2019-05-22T05:38:10.918Z,22.59
2019-05-22T05:40:41.825Z,22.96
2019-05-22T05:43:11.828Z,21.90
2019-05-22T05:45:42.373Z,22.86
2019-05-22T05:48:14.100Z,22.89
2019-05-22T05:51:02.033Z,22.89
2019-05-22T05:53:31.922Z,22.37
2019-05-22T05:56:16.777Z,22.66
2019-05-22T05:58:46.086Z,22.66
2019-05-22T06:01:19.192Z,22.50
2019-05-22T06:03:47.503Z,24.26
2019-05-22T06:06:26.023Z,22.99
2019-05-22T06:08:56.388Z,22.59
2019-05-22T06:11:39.958Z,23.06
2019-05-22T06:14:10.195Z,22.23
2019-05-22T06:17:01.357Z,22.93
2019-05-22T06:19:31.592Z,23.06
2019-05-22T06:22:00.321Z,22.05
2019-05-22T06:24:36.631Z,22.76
2019-05-22T06:27:11.819Z,22.91
2019-05-22T06:29:56.050Z,23.11
2019-05-22T06:32:57.681Z,22.90
2019-05-22T06:35:30.024Z,22.90
2019-05-22T06:38:18.655Z,22.90
2019-05-22T06:40:47.061Z,22.26
2019-05-22T06:43:29.240Z,23.38
2019-05-22T06:45:58.035Z,22.89
2019-05-22T06:48:26.359Z,23.18
2019-05-22T06:50:54.719Z,23.07
2019-05-22T06:53:23.116Z,22.48
2019-05-22T06:55:51.486Z,22.61
2019-05-22T06:58:20.737Z,22.42
2019-05-22T07:00:49.105Z,23.52
2019-05-22T07:03:17.862Z,22.86
2019-05-22T07:05:46.516Z,23.15
2019-05-22T07:08:14.907Z,22.40
2019-05-22T07:10:43.376Z,23.88
2019-05-22T07:13:13.580Z,23.21
2019-05-22T07:15:43.501Z,22.93
2019-05-22T07:18:14.655Z,22.78
2019-05-22T07:20:43.596Z,23.18
2019-05-22T07:23:13.182Z,23.41
2019-05-22T07:25:44.591Z,22.66
2019-05-22T07:28:14.295Z,22.71
2019-05-22T07:30:42.809Z,23.19
2019-05-22T07:33:12.284Z,23.20
2019-05-22T07:36:04.763Z,24.27
2019-05-22T07:38:12.616Z,23.32
2019-05-22T07:40:41.383Z,23.82
2019-05-22T07:43:10.048Z,24.02
2019-05-22T07:45:39.432Z,23.11
2019-05-22T07:48:09.708Z,23.07
2019-05-22T07:50:42.438Z,23.69
2019-05-22T07:53:12.058Z,22.77
2019-05-22T07:55:40.430Z,23.57
2019-05-22T07:58:14.543Z,22.86
2019-05-22T08:00:46.898Z,23.89
2019-05-22T08:03:15.203Z,24.26
2019-05-22T08:05:46.672Z,24.30
2019-05-22T08:08:18.699Z,23.57
2019-05-22T08:10:48.072Z,24.21
2019-05-22T08:13:16.501Z,23.74
2019-05-22T08:15:47.870Z,22.96
2019-05-22T08:18:16.601Z,23.44
2019-05-22T08:20:45.683Z,24.19
2019-05-22T08:23:14.247Z,24.07
2019-05-22T08:25:42.708Z,23.69
2019-05-22T08:28:12.339Z,23.05
2019-05-22T08:30:41.709Z,24.15
2019-05-22T08:33:11.461Z,24.13
2019-05-22T08:35:39.770Z,24.06
2019-05-22T08:38:09.916Z,23.43
2019-05-22T08:40:39.442Z,24.09
2019-05-22T08:43:08.690Z,23.34
2019-05-22T08:45:38.316Z,23.45
2019-05-22T08:48:07.646Z,23.55
2019-05-22T08:50:37.577Z,24.69
2019-05-22T08:53:07.115Z,23.23
2019-05-22T08:55:36.318Z,22.66
2019-05-22T08:58:05.867Z,22.28
2019-05-22T09:00:35.376Z,23.34
2019-05-22T09:03:04.389Z,21.94
2019-05-22T09:05:33.632Z,22.84
2019-05-22T09:08:02.588Z,23.22
2019-05-22T09:10:31.849Z,22.60
2019-05-22T09:13:00.171Z,23.39
2019-05-22T09:15:29.042Z,23.52
2019-05-22T09:17:57.383Z,23.84
2019-05-22T09:20:25.821Z,23.86
2019-05-22T09:22:54.763Z,24.28
2019-05-22T09:25:24.184Z,25.03
2019-05-22T09:27:52.483Z,25.38
2019-05-22T09:30:20.934Z,25.03
2019-05-22T09:32:49.231Z,24.69
2019-05-22T09:35:17.896Z,24.04
2019-05-22T09:37:46.201Z,24.51
2019-05-22T09:40:14.848Z,24.20
2019-05-22T09:42:43.730Z,24.18
2019-05-22T09:45:12.362Z,23.80
2019-05-22T09:47:42.390Z,24.95
2019-05-22T09:50:12.494Z,23.96
2019-05-22T09:52:56.413Z,24.02
2019-05-22T09:55:13.966Z,25.32
2019-05-22T09:57:42.556Z,25.32
2019-05-22T10:00:12.483Z,24.68
2019-05-22T10:02:42.841Z,24.76
2019-05-22T10:05:13.302Z,24.45
2019-05-22T10:07:57.804Z,25.06
2019-05-22T10:10:14.769Z,24.59
2019-05-22T10:12:43.954Z,24.73
2019-05-22T10:15:13.163Z,24.48
2019-05-22T10:17:47.743Z,25.00
2019-05-22T10:20:17.094Z,25.89
2019-05-22T10:22:46.346Z,24.25
2019-05-22T10:25:17.101Z,24.40
2019-05-22T10:27:47.130Z,24.21
2019-05-22T10:30:19.536Z,24.45
2019-05-22T10:32:48.773Z,23.96
2019-05-22T10:35:17.567Z,23.69
2019-05-22T10:37:45.998Z,24.35
2019-05-22T10:40:15.658Z,23.97
2019-05-22T10:42:45.195Z,23.45
2019-05-22T10:45:14.134Z,24.03
2019-05-22T10:47:44.365Z,23.57
2019-05-22T10:50:13.896Z,23.94
2019-05-22T10:52:42.282Z,24.26
2019-05-22T10:55:10.658Z,24.13
2019-05-22T10:57:41.010Z,24.49
2019-05-22T11:00:12.992Z,24.49
2019-05-22T11:02:41.841Z,24.70
2019-05-22T11:05:10.470Z,24.27
2019-05-22T11:07:39.025Z,24.58
2019-05-22T11:10:08.640Z,23.70
2019-05-22T11:12:36.941Z,24.35
2019-05-22T11:15:07.365Z,24.41
2019-05-22T11:17:36.517Z,24.64
2019-05-22T11:20:06.449Z,24.24
2019-05-22T11:22:36.583Z,24.44
2019-05-22T11:25:10.081Z,23.47
2019-05-22T11:27:39.305Z,24.45
2019-05-22T11:30:09.856Z,23.91
2019-05-22T11:32:38.226Z,24.80
2019-05-22T11:35:08.745Z,24.43
2019-05-22T11:37:37.621Z,24.43
2019-05-22T11:40:07.470Z,24.48
2019-05-22T11:42:36.047Z,23.64
2019-05-22T11:45:11.247Z,24.02
2019-05-22T11:47:39.623Z,23.28
2019-05-22T11:50:10.355Z,23.29
2019-05-22T11:52:38.750Z,23.59
2019-05-22T11:55:08.399Z,24.33
2019-05-22T11:57:38.060Z,23.42
2019-05-22T12:00:09.287Z,24.20
2019-05-22T12:02:38.947Z,23.59
2019-05-22T12:05:10.277Z,24.17
2019-05-22T12:07:42.151Z,23.75
2019-05-22T12:10:12.704Z,23.89
2019-05-22T12:12:41.528Z,23.41
2019-05-22T12:15:10.494Z,23.71
2019-05-22T12:17:39.259Z,24.85
2019-05-22T12:20:08.603Z,24.55
2019-05-22T12:22:37.439Z,24.22
2019-05-22T12:25:07.381Z,24.38
2019-05-22T12:27:35.769Z,24.65
2019-05-22T12:30:05.773Z,24.28
2019-05-22T12:32:34.263Z,23.98
2019-05-22T12:35:03.278Z,24.59
2019-05-22T12:37:32.181Z,23.83
2019-05-22T12:40:00.713Z,22.99
2019-05-22T12:42:29.004Z,23.02
2019-05-22T12:44:57.695Z,23.59
2019-05-22T12:47:26.856Z,23.82
2019-05-22T12:49:55.817Z,23.67
2019-05-22T12:52:24.366Z,22.74
2019-05-22T12:54:53.428Z,23.10
2019-05-22T12:57:22.561Z,23.43
2019-05-22T12:59:51.927Z,24.31
2019-05-22T13:02:20.292Z,24.04
2019-05-22T13:04:49.270Z,23.35
2019-05-22T13:07:18.324Z,23.59
2019-05-22T13:09:47.164Z,24.21
2019-05-22T13:12:15.942Z,24.09
2019-05-22T13:14:45.175Z,25.44
2019-05-22T13:17:15.734Z,24.72
2019-05-22T13:19:44.674Z,24.95
2019-05-22T13:22:16.627Z,24.29
2019-05-22T13:24:44.931Z,24.55
2019-05-22T13:27:15.710Z,24.06
2019-05-22T13:29:44.357Z,24.70
2019-05-22T13:32:14.986Z,24.48
2019-05-22T13:34:43.432Z,24.57
2019-05-22T13:37:11.784Z,24.27
2019-05-22T13:39:40.769Z,25.16
2019-05-22T13:42:09.135Z,24.62
2019-05-22T13:44:38.092Z,24.96
2019-05-22T13:47:07.463Z,23.55
2019-05-22T13:49:38.074Z,24.55
2019-05-22T13:52:06.649Z,23.50
2019-05-22T13:54:35.449Z,24.98
2019-05-22T13:57:04.285Z,25.15
2019-05-22T13:59:32.570Z,24.89
2019-05-22T14:02:00.958Z,25.37
2019-05-22T14:04:29.549Z,25.12
2019-05-22T14:06:58.297Z,25.28
2019-05-22T14:09:26.896Z,25.18
2019-05-22T14:11:56.242Z,26.16
2019-05-22T14:14:24.914Z,26.27
2019-05-22T14:16:53.962Z,25.64
2019-05-22T14:19:23.499Z,25.55
2019-05-22T14:21:52.296Z,24.69
2019-05-22T14:24:20.945Z,25.18
2019-05-22T14:26:50.894Z,25.09
2019-05-22T14:29:19.576Z,25.75
2019-05-22T14:31:48.009Z,26.15
2019-05-22T14:34:17.018Z,25.34
2019-05-22T14:36:45.621Z,25.43
2019-05-22T14:39:15.834Z,25.22
2019-05-22T14:41:44.222Z,25.10
2019-05-22T14:44:12.531Z,26.07
2019-05-22T14:46:40.912Z,26.06
2019-05-22T14:49:09.280Z,25.74
2019-05-22T14:51:37.896Z,24.99
2019-05-22T14:54:08.116Z,25.60
2019-05-22T14:56:37.487Z,25.35
2019-05-22T14:59:06.191Z,25.23
2019-05-22T15:01:34.734Z,25.12
2019-05-22T15:04:03.766Z,25.57
2019-05-22T15:06:32.512Z,25.43
2019-05-22T15:09:00.876Z,24.70
2019-05-22T15:11:29.407Z,26.56
2019-05-22T15:13:57.998Z,25.12
2019-05-22T15:16:26.431Z,25.00
2019-05-22T15:18:54.887Z,25.99
2019-05-22T15:21:24.689Z,25.91
2019-05-22T15:23:53.656Z,25.04
2019-05-22T15:26:21.959Z,25.34
2019-05-22T15:28:50.371Z,25.28
2019-05-22T15:31:18.897Z,25.40
2019-05-22T15:33:47.265Z,25.78
2019-05-22T15:36:16.929Z,25.47
2019-05-22T15:38:46.396Z,25.80
2019-05-22T15:41:15.332Z,25.65
2019-05-22T15:43:50.445Z,25.46
2019-05-22T15:46:16.824Z,25.21
2019-05-22T15:48:47.532Z,26.12
2019-05-22T15:51:18.430Z,25.29
2019-05-22T15:53:47.991Z,24.97
2019-05-22T15:56:16.390Z,25.61
2019-05-22T15:58:47.216Z,26.64
2019-05-22T16:01:17.744Z,25.52
2019-05-22T16:03:48.276Z,26.14
2019-05-22T16:06:17.196Z,25.89
2019-05-22T16:08:46.311Z,27.04
2019-05-22T16:11:15.271Z,27.43
2019-05-22T16:13:45.108Z,26.92
2019-05-22T16:16:15.030Z,26.19
2019-05-22T16:18:44.896Z,26.60
2019-05-22T16:21:13.388Z,25.88
2019-05-22T16:23:42.939Z,25.35
2019-05-22T16:26:12.807Z,25.79
2019-05-22T16:28:43.817Z,25.99
2019-05-22T16:31:13.752Z,26.17
2019-05-22T16:33:43.988Z,25.33
2019-05-22T16:36:13.622Z,25.83
2019-05-22T16:38:42.566Z,26.16
2019-05-22T16:41:11.803Z,26.67
2019-05-22T16:43:49.411Z,25.25
2019-05-22T16:46:15.190Z,25.74
2019-05-22T16:48:44.695Z,27.40
2019-05-22T16:51:15.793Z,27.23
2019-05-22T16:53:50.209Z,26.34
2019-05-22T16:56:20.614Z,27.17
2019-05-22T16:58:49.739Z,26.72
2019-05-22T17:01:18.857Z,26.85
2019-05-22T17:03:49.410Z,26.99
2019-05-22T17:06:18.254Z,27.53
2019-05-22T17:08:47.374Z,26.67
2019-05-22T17:11:15.823Z,26.89
2019-05-22T17:13:45.343Z,26.67
2019-05-22T17:16:15.503Z,26.63
2019-05-22T17:18:47.978Z,27.22
2019-05-22T17:21:15.285Z,26.24
2019-05-22T17:23:44.733Z,26.07
2019-05-22T17:26:13.527Z,25.03
2019-05-22T17:28:41.945Z,26.31
2019-05-22T17:31:11.386Z,26.58
2019-05-22T17:33:40.446Z,24.94
2019-05-22T17:36:09.229Z,26.82
2019-05-22T17:38:38.811Z,25.40
2019-05-22T17:41:08.464Z,25.30
2019-05-22T17:43:37.324Z,26.00
2019-05-22T17:46:06.398Z,25.89
2019-05-22T17:48:35.374Z,26.66
2019-05-22T17:51:05.238Z,26.34
2019-05-22T17:53:34.524Z,25.27
2019-05-22T17:56:03.939Z,25.04
2019-05-22T17:58:32.333Z,26.06
2019-05-22T18:01:02.039Z,26.45
2019-05-22T18:03:31.436Z,25.30
2019-05-22T18:06:00.779Z,24.92
2019-05-22T18:08:29.149Z,25.54
2019-05-22T18:10:58.408Z,25.17
2019-05-22T18:13:30.308Z,25.48
2019-05-22T18:15:59.106Z,25.66
2019-05-22T18:18:27.440Z,25.62
2019-05-22T18:20:56.960Z,25.91
2019-05-22T18:23:25.327Z,26.01
2019-05-22T18:25:53.998Z,26.61
2019-05-22T18:28:22.516Z,25.26
2019-05-22T18:30:50.992Z,25.04
2019-05-22T18:33:19.490Z,24.98
2019-05-22T18:35:48.129Z,24.65
2019-05-22T18:38:16.518Z,24.74
2019-05-22T18:40:45.407Z,24.47
2019-05-22T18:43:14.005Z,24.78
2019-05-22T18:45:42.726Z,24.35
2019-05-22T18:48:11.237Z,24.07
2019-05-22T18:50:39.891Z,24.66
2019-05-22T18:53:08.316Z,25.13
2019-05-22T18:55:37.184Z,24.89
2019-05-22T18:58:05.769Z,23.55
2019-05-22T19:00:34.443Z,24.10
2019-05-22T19:03:03.401Z,24.78
2019-05-22T19:05:32.830Z,24.63
2019-05-22T19:08:01.289Z,24.30
2019-05-22T19:10:30.127Z,25.02
2019-05-22T19:12:58.725Z,24.28
2019-05-22T19:15:28.367Z,23.92
2019-05-22T19:17:56.753Z,24.96
2019-05-22T19:20:25.601Z,25.23
2019-05-22T19:23:00.262Z,24.30
2019-05-22T19:25:24.503Z,23.86
2019-05-22T19:27:53.467Z,24.44
2019-05-22T19:30:22.993Z,24.13
2019-05-22T19:32:52.319Z,24.00
2019-05-22T19:35:20.702Z,24.20
2019-05-22T19:37:50.539Z,24.52
2019-05-22T19:40:19.715Z,25.30
2019-05-22T19:42:48.261Z,24.33
2019-05-22T19:45:17.057Z,23.95
2019-05-22T19:47:51.116Z,24.78
2019-05-22T19:50:23.363Z,24.06
2019-05-22T19:52:53.073Z,24.54
2019-05-22T19:55:22.709Z,24.06
2019-05-22T19:57:51.754Z,24.06
2019-05-22T20:00:22.618Z,24.59
2019-05-22T20:02:51.389Z,24.13
2019-05-22T20:05:21.787Z,24.33
2019-05-22T20:07:50.275Z,24.89
2019-05-22T20:10:18.958Z,24.57
2019-05-22T20:12:47.639Z,24.77
2019-05-22T20:15:17.179Z,24.98
2019-05-22T20:17:47.395Z,24.16
2019-05-22T20:20:17.593Z,24.39
2019-05-22T20:22:46.332Z,24.67
2019-05-22T20:25:17.128Z,24.44
2019-05-22T20:27:45.798Z,24.24
2019-05-22T20:30:15.971Z,25.02
2019-05-22T20:32:45.061Z,24.60
2019-05-22T20:35:14.613Z,23.82
2019-05-22T20:37:45.898Z,24.47
2019-05-22T20:40:14.577Z,23.59
2019-05-22T20:42:43.225Z,25.07
2019-05-22T20:45:13.129Z,24.68
2019-05-22T20:47:42.181Z,24.26
2019-05-22T20:50:11.401Z,24.38
2019-05-22T20:52:40.064Z,24.54
2019-05-22T20:55:09.561Z,24.85
2019-05-22T20:57:38.802Z,23.75
2019-05-22T21:00:10.112Z,24.21
2019-05-22T21:02:40.714Z,24.36
2019-05-22T21:05:11.020Z,24.48
2019-05-22T21:07:43.286Z,24.32
2019-05-22T21:10:12.589Z,24.36
2019-05-22T21:12:41.017Z,24.27
2019-05-22T21:15:10.550Z,23.89
2019-05-22T21:17:39.906Z,24.32
2019-05-22T21:20:11.317Z,24.65
2019-05-22T21:22:41.300Z,24.07
2019-05-22T21:25:12.146Z,24.58
2019-05-22T21:27:42.683Z,24.77
2019-05-22T21:30:12.920Z,24.61
2019-05-22T21:32:41.226Z,24.37
2019-05-22T21:35:10.297Z,23.48
2019-05-22T21:37:39.528Z,24.85
2019-05-22T21:40:09.211Z,24.17
2019-05-22T21:42:41.231Z,23.42
2019-05-22T21:45:11.112Z,24.02
2019-05-22T21:47:41.199Z,24.44
2019-05-22T21:50:10.753Z,24.56
2019-05-22T21:52:40.426Z,23.91
2019-05-22T21:55:11.447Z,24.06
2019-05-22T21:57:40.487Z,23.63
2019-05-22T22:00:13.589Z,23.94
2019-05-22T22:02:45.597Z,23.50
2019-05-22T22:05:15.468Z,24.02
2019-05-22T22:07:44.330Z,23.67
2019-05-22T22:10:13.404Z,24.11
2019-05-22T22:12:42.235Z,24.81
2019-05-22T22:15:12.438Z,23.80
2019-05-22T22:17:42.517Z,23.84
2019-05-22T22:20:12.148Z,23.89
2019-05-22T22:22:42.435Z,24.52
2019-05-22T22:25:13.098Z,23.54
2019-05-22T22:27:42.376Z,23.92
2019-05-22T22:30:17.715Z,23.45
2019-05-22T22:32:46.032Z,24.26
2019-05-22T22:35:16.048Z,23.65
2019-05-22T22:37:44.825Z,23.96
2019-05-22T22:40:16.066Z,23.63
2019-05-22T22:42:47.006Z,23.28
2019-05-22T22:45:36.189Z,24.06
2019-05-22T22:48:06.516Z,23.71
2019-05-22T22:50:36.359Z,24.20
2019-05-22T22:53:06.296Z,24.31
2019-05-22T22:55:36.764Z,24.37
2019-05-22T22:58:16.535Z,24.67
2019-05-22T23:00:40.404Z,23.67
2019-05-22T23:03:11.189Z,24.35
2019-05-22T23:05:41.719Z,24.35
2019-05-22T23:08:13.246Z,23.93
2019-05-22T23:10:42.483Z,24.41
2019-05-22T23:13:12.421Z,23.38
2019-05-22T23:15:41.363Z,24.61
2019-05-22T23:18:10.118Z,24.34
2019-05-22T23:20:38.768Z,24.74
2019-05-22T23:23:07.117Z,24.44
2019-05-22T23:25:37.355Z,24.32
2019-05-22T23:28:05.656Z,24.90
2019-05-22T23:30:34.113Z,24.30
2019-05-22T23:33:03.182Z,24.61
2019-05-22T23:35:31.910Z,23.79
2019-05-22T23:38:01.842Z,24.02
2019-05-22T23:40:31.847Z,24.26
2019-05-22T23:43:02.495Z,23.83
2019-05-22T23:45:30.959Z,23.48
2019-05-22T23:48:27.545Z,23.84
2019-05-22T23:50:56.483Z,24.48
2019-05-22T23:53:25.177Z,24.29
2019-05-22T23:55:54.111Z,25.06
2019-05-22T23:58:23.079Z,24.63
